Decoded Metar for KAXN (ALEXANDRIA in MN, USA) (IATA:AXN) | Meteo·Mobile Aviation Weather
aviador You're here:

KAXN Decoded Metar

ALEXANDRIA in MN, USA
Report Time2020-02-22 08:53:00
UTC Time2020-02-22 09:26:44
Flight Rules vfr VFR
Wind180° at 03 kt
W.Decomp.*RWY 13: 2.1 kt HW 2.2 kt RCW
RWY 22: 2.2 kt HW 2.1 kt LCW
Visibility9999 m
Phenomena:N/A
Clouds:N/A
Expected CloudBase > 400 ft AGL from Temp-Dew spread
CeilingNone
Temp-11°C (ISA -23)
Dew Point-12°C (92% RH)
AAT-15.3°C
QNH1015 hPa
Density Alt-1,503 ft
Elevation1,421 ft
Report Wrong Elevation
Raw Report
KAXN 220853Z AUTO 18003KT 10SM CLR M11/M12 A2997 RMK AO2 SLP171
I3000 T11061117 58015=

Extra information for KAXN:More info

Metar Taf Metar & Taf Last 4 Metars F.Rules Stats Wind Profile Meteogram Temp Stats Airport Information Weather charts Add Link Nearby VenuesMetar ALERT Operation Metar Decoded Social comments

AIRNAV info for KAXN